Time;durP1;ratioP1;P1;durP2;ratioP2;P2;SDS_P1;SDS_P2;PMS_P1;PMS_P2;Temp;Humidity;BMP_temperature;BMP_pressure;BME280_temperature;BME280_humidity;BME280_pressure;Samples;Min_cycle;Max_cycle;Signal;HPM_P1;HPM_P2
2022/06/09 00:03:19;;;;;;;5.22;3.13;;;;;16.90;95707.00;;;;8399806;28;20701;-71
2022/06/09 00:07:22;;;;;;;5.15;2.78;;;;;16.80;95716.00;;;;8399569;28;20390;-69
2022/06/09 00:11:27;;;;;;;7.28;3.22;;;;;16.80;95716.00;;;;8399067;28;20232;-68
2022/06/09 00:15:31;;;;;;;4.90;3.22;;;;;16.80;95709.00;;;;8399852;28;20224;-67
2022/06/09 00:19:35;;;;;;;7.40;3.33;;;;;16.70;95710.00;;;;8398997;28;20192;-69
2022/06/09 00:23:39;;;;;;;10.15;3.70;;;;;16.70;95710.00;;;;8398904;28;20287;-74
2022/06/09 00:27:42;;;;;;;4.88;3.40;;;;;16.60;95714.00;;;;8400251;28;20232;-73
2022/06/09 00:31:47;;;;;;;5.18;3.40;;;;;16.60;95709.00;;;;8398216;28;20196;-74
2022/06/09 00:35:50;;;;;;;8.23;3.60;;;;;16.50;95714.00;;;;8399268;28;20640;-73
2022/06/09 00:39:54;;;;;;;9.45;3.95;;;;;16.40;95705.00;;;;8398379;28;20234;-72
2022/06/09 00:44:17;;;;;;;8.02;4.20;;;;;16.30;95702.00;;;;8398173;28;20275;-72
2022/06/09 00:48:40;;;;;;;8.23;4.32;;;;;16.20;95705.00;;;;8397745;28;20262;-73
2022/06/09 00:52:48;;;;;;;8.02;4.15;;;;;16.20;95708.00;;;;8398919;28;20278;-72
2022/06/09 00:56:56;;;;;;;8.95;4.70;;;;;16.20;95708.00;;;;8397230;28;20282;-73
2022/06/09 01:01:02;;;;;;;13.00;4.10;;;;;16.20;95706.00;;;;8398317;28;20296;-77
2022/06/09 01:05:36;;;;;;;13.27;4.45;;;;;16.10;95703.00;;;;8398048;28;20726;-76
2022/06/09 01:09:41;;;;;;;7.40;4.05;;;;;16.00;95696.00;;;;8397827;28;20227;-77
2022/06/09 01:13:45;;;;;;;9.88;3.75;;;;;16.00;95699.00;;;;8398354;28;20205;-76
2022/06/09 01:18:24;;;;;;;10.75;4.60;;;;;15.90;95699.00;;;;8398266;28;20606;-74
2022/06/09 01:23:09;;;;;;;11.80;4.47;;;;;15.90;95701.00;;;;8397302;28;20239;-75
2022/06/09 01:32:18;;;;;;;7.05;4.07;;;;;15.80;95696.00;;;;8397321;28;20291;-75
2022/06/09 01:36:29;;;;;;;11.80;4.60;;;;;15.80;95699.00;;;;8397635;28;20287;-72
2022/06/09 01:40:32;;;;;;;8.57;4.43;;;;;15.80;95692.00;;;;8397177;28;20681;-73
2022/06/09 01:45:09;;;;;;;4.95;4.20;;;;;15.80;95696.00;;;;8398610;28;20603;-75
2022/06/09 01:49:15;;;;;;;14.18;4.40;;;;;15.80;95707.00;;;;8403652;28;20302;-73
2022/06/09 01:53:23;;;;;;;8.85;4.03;;;;;15.70;95698.00;;;;8403368;28;20200;-68
2022/06/09 01:57:31;;;;;;;7.68;4.45;;;;;15.60;95700.00;;;;8404377;28;20648;-72
2022/06/09 02:01:39;;;;;;;8.13;4.65;;;;;15.60;95697.00;;;;8403730;28;20283;-72
2022/06/09 02:05:48;;;;;;;9.88;4.68;;;;;15.70;95704.00;;;;8403117;28;20288;-74
2022/06/09 02:09:51;;;;;;;8.25;4.50;;;;;15.60;95702.00;;;;8401336;28;20314;-72
2022/06/09 02:14:30;;;;;;;7.85;3.97;;;;;15.60;95703.00;;;;8403442;28;20646;-69
2022/06/09 02:18:37;;;;;;;9.52;4.72;;;;;15.60;95699.00;;;;8402819;28;20252;-69
2022/06/09 02:22:41;;;;;;;5.95;3.45;;;;;15.50;95707.00;;;;8404204;28;20667;-71
2022/06/09 02:26:45;;;;;;;4.07;2.80;;;;;15.40;95709.00;;;;8402522;28;20538;-72
2022/06/09 02:30:48;;;;;;;3.28;2.90;;;;;15.40;95701.00;;;;8402417;28;20618;-71
2022/06/09 02:34:53;;;;;;;3.35;2.60;;;;;15.40;95704.00;;;;8402731;28;20199;-73
2022/06/09 02:39:31;;;;;;;3.47;2.38;;;;;15.40;95711.00;;;;8402655;28;20275;-75
2022/06/09 02:43:35;;;;;;;3.83;2.58;;;;;15.40;95708.00;;;;8402098;28;20279;-75
2022/06/09 02:47:38;;;;;;;5.20;2.58;;;;;15.40;95718.00;;;;8401615;28;20231;-77
2022/06/09 02:51:42;;;;;;;3.20;2.95;;;;;15.40;95722.00;;;;8402407;28;20196;-70
2022/06/09 02:55:47;;;;;;;5.63;2.88;;;;;15.40;95710.00;;;;8401670;28;20287;-73
2022/06/09 02:59:51;;;;;;;4.13;3.60;;;;;15.30;95719.00;;;;8401512;28;20180;-71
2022/06/09 03:03:54;;;;;;;4.53;3.80;;;;;15.30;95711.00;;;;8405518;22;20695;-73
2022/06/09 03:07:58;;;;;;;6.47;4.68;;;;;15.20;95709.00;;;;8395851;28;20223;-70
2022/06/09 03:12:03;;;;;;;6.45;4.53;;;;;15.20;95721.00;;;;8378609;28;20294;-72
2022/06/09 03:16:07;;;;;;;5.90;4.65;;;;;15.20;95727.00;;;;8390869;28;20199;-72
2022/06/09 03:20:16;;;;;;;6.45;5.35;;;;;15.20;95726.00;;;;8401923;28;20649;-72
2022/06/09 03:24:19;;;;;;;7.63;4.70;;;;;15.20;95728.00;;;;8400661;28;20287;-71
2022/06/09 03:28:24;;;;;;;9.30;5.20;;;;;15.20;95731.00;;;;8410469;28;20317;-72
2022/06/09 03:32:27;;;;;;;7.38;5.40;;;;;15.10;95733.00;;;;8403272;28;20231;-71
2022/06/09 03:36:31;;;;;;;7.10;5.63;;;;;15.10;95736.00;;;;8395712;28;20203;-71
2022/06/09 03:40:34;;;;;;;9.90;5.57;;;;;15.10;95738.00;;;;8397737;28;20250;-67
2022/06/09 03:44:39;;;;;;;8.57;5.97;;;;;15.10;95736.00;;;;8395592;28;20282;-70
2022/06/09 03:48:43;;;;;;;9.68;5.88;;;;;15.00;95740.00;;;;8389811;28;20708;-70
2022/06/09 03:52:46;;;;;;;9.68;5.80;;;;;15.10;95738.00;;;;8400348;28;20205;-69
2022/06/09 03:56:51;;;;;;;9.20;6.15;;;;;15.10;95744.00;;;;8382905;28;20552;-70
2022/06/09 04:01:13;;;;;;;9.75;6.40;;;;;15.10;95744.00;;;;8408811;28;20203;-70
2022/06/09 04:05:17;;;;;;;9.07;6.72;;;;;15.10;95753.00;;;;8352121;28;20208;-70
2022/06/09 04:09:20;;;;;;;12.75;7.15;;;;;15.10;95749.00;;;;8375081;28;20227;-69
2022/06/09 04:13:23;;;;;;;11.25;7.07;;;;;15.20;95746.00;;;;8341000;28;20206;-69
2022/06/09 04:17:28;;;;;;;11.00;6.40;;;;;15.10;95757.00;;;;8344783;28;20197;-69
2022/06/09 04:21:32;;;;;;;10.68;5.70;;;;;15.10;95754.00;;;;8360462;28;20319;-69
2022/06/09 04:25:37;;;;;;;8.93;6.10;;;;;15.20;95760.00;;;;8332992;28;20208;-69
2022/06/09 04:29:40;;;;;;;9.75;6.20;;;;;15.20;95767.00;;;;8352734;28;20275;-69
2022/06/09 04:33:45;;;;;;;14.38;6.88;;;;;15.30;95767.00;;;;8357595;28;20198;-70
2022/06/09 04:38:00;;;;;;;10.00;6.15;;;;;15.40;95771.00;;;;8360730;28;20306;-69
2022/06/09 04:42:05;;;;;;;8.13;6.03;;;;;15.40;95768.00;;;;8356202;28;20212;-69
2022/06/09 04:46:09;;;;;;;8.52;5.88;;;;;15.50;95779.00;;;;8355411;28;20297;-70
2022/06/09 04:51:03;;;;;;;7.40;5.90;;;;;15.50;95785.00;;;;8348744;28;20237;-72
2022/06/09 04:55:17;;;;;;;10.70;5.47;;;;;15.60;95787.00;;;;8356241;28;20247;-69
2022/06/09 04:59:20;;;;;;;10.45;5.68;;;;;15.70;95792.00;;;;8366183;28;20284;-68
2022/06/09 05:03:23;;;;;;;10.35;5.72;;;;;15.80;95791.00;;;;8347498;28;20264;-69
2022/06/09 05:07:27;;;;;;;8.70;5.72;;;;;15.90;95795.00;;;;8357300;28;20853;-72
2022/06/09 05:11:32;;;;;;;8.52;5.53;;;;;15.90;95792.00;;;;8367739;28;20211;-70
2022/06/09 05:15:37;;;;;;;10.68;5.72;;;;;16.00;95796.00;;;;8375039;28;20231;-74
2022/06/09 05:19:41;;;;;;;10.15;5.40;;;;;16.20;95805.00;;;;8359445;28;20653;-72
2022/06/09 05:23:45;;;;;;;5.63;4.82;;;;;16.30;95808.00;;;;8364756;28;20692;-74
2022/06/09 05:27:49;;;;;;;7.88;5.03;;;;;16.40;95811.00;;;;8350095;28;20230;-70
2022/06/09 05:31:54;;;;;;;9.32;5.18;;;;;16.40;95817.00;;;;8360672;28;20205;-72
2022/06/09 05:35:58;;;;;;;11.65;4.95;;;;;16.40;95824.00;;;;8375016;28;20646;-70
2022/06/09 05:48:45;;;;;;;5.45;4.75;;;;;16.70;95828.00;;;;8342045;28;20360;-73
2022/06/09 05:52:49;;;;;;;8.35;4.68;;;;;16.80;95836.00;;;;8351299;28;20197;-76
2022/06/09 05:56:54;;;;;;;9.38;5.00;;;;;16.90;95833.00;;;;8356097;28;20206;-71
2022/06/09 06:00:59;;;;;;;9.50;4.63;;;;;17.10;95836.00;;;;8372715;28;20232;-71
2022/06/09 06:05:03;;;;;;;8.95;4.45;;;;;17.20;95847.00;;;;8350357;28;20251;-75
2022/06/09 06:09:08;;;;;;;7.07;5.28;;;;;17.30;95845.00;;;;8350825;28;20323;-73
2022/06/09 06:13:12;;;;;;;6.65;4.32;;;;;17.30;95854.00;;;;8358177;28;20283;-71
2022/06/09 06:17:17;;;;;;;10.00;4.47;;;;;17.50;95861.00;;;;8368909;28;20200;-71
2022/06/09 06:21:20;;;;;;;5.63;3.85;;;;;17.60;95866.00;;;;8345832;28;20711;-71
2022/06/09 06:25:25;;;;;;;6.05;4.15;;;;;17.90;95872.00;;;;8356078;28;20197;-73
2022/06/09 06:29:28;;;;;;;9.35;3.83;;;;;18.20;95873.00;;;;8343043;28;20343;-72
2022/06/09 06:33:33;;;;;;;6.15;4.40;;;;;18.40;95873.00;;;;8362159;28;20205;-69
2022/06/09 06:37:36;;;;;;;4.63;3.85;;;;;18.70;95880.00;;;;8353074;28;20288;-75
2022/06/09 06:41:40;;;;;;;4.85;3.63;;;;;19.10;95891.00;;;;8364596;28;20205;-71
2022/06/09 06:45:43;;;;;;;4.97;3.55;;;;;19.20;95885.00;;;;8358160;28;20667;-70
2022/06/09 06:49:48;;;;;;;4.32;3.22;;;;;19.50;95893.00;;;;8371728;28;20227;-75
2022/06/09 06:53:51;;;;;;;4.68;3.10;;;;;19.50;95899.00;;;;8360102;28;20606;-73
2022/06/09 06:57:54;;;;;;;3.92;3.58;;;;;19.40;95901.00;;;;8363605;28;20208;-68
2022/06/09 07:01:58;;;;;;;4.93;3.47;;;;;19.70;95902.00;;;;8361286;28;20700;-71
2022/06/09 07:06:02;;;;;;;5.15;3.42;;;;;19.90;95900.00;;;;8366713;28;20669;-68
2022/06/09 07:10:07;;;;;;;3.20;3.00;;;;;19.90;95904.00;;;;8356048;28;20264;-72
2022/06/09 07:14:10;;;;;;;13.02;3.53;;;;;19.90;95911.00;;;;8360141;28;20301;-71
2022/06/09 07:18:13;;;;;;;4.55;3.05;;;;;19.70;95912.00;;;;8352151;28;20228;-72
2022/06/09 07:22:19;;;;;;;4.40;3.70;;;;;19.80;95919.00;;;;8358648;28;20917;-69
2022/06/09 07:26:22;;;;;;;4.68;3.10;;;;;19.80;95915.00;;;;8365987;28;20193;-72
2022/06/09 07:30:28;;;;;;;3.70;3.40;;;;;20.10;95923.00;;;;8361627;28;20590;-76
2022/06/09 07:34:32;;;;;;;7.22;2.92;;;;;20.20;95925.00;;;;8361198;28;20231;-73
2022/06/09 07:38:36;;;;;;;6.57;3.03;;;;;20.30;95920.00;;;;8363285;28;20210;-77
2022/06/09 07:42:40;;;;;;;3.30;3.00;;;;;20.30;95930.00;;;;8358177;28;20646;-72
2022/06/09 07:46:44;;;;;;;5.75;3.65;;;;;20.10;95929.00;;;;8366113;28;20991;-72
2022/06/09 07:50:50;;;;;;;6.25;3.67;;;;;20.00;95944.00;;;;8367245;28;20303;-72
2022/06/09 07:54:55;;;;;;;6.93;3.03;;;;;20.10;95954.00;;;;8365709;28;20193;-72
2022/06/09 07:59:07;;;;;;;4.97;3.28;;;;;20.00;95943.00;;;;8361330;28;20201;-78
2022/06/09 08:03:17;;;;;;;5.28;3.33;;;;;20.10;95954.00;;;;8365423;28;20684;-71
2022/06/09 08:07:22;;;;;;;9.55;3.15;;;;;20.10;95962.00;;;;8369289;28;20239;-71
2022/06/09 08:11:28;;;;;;;6.45;3.22;;;;;20.00;95945.00;;;;8354321;28;20229;-76
2022/06/09 08:15:33;;;;;;;6.35;3.38;;;;;20.40;95947.00;;;;8356378;28;20204;-71
2022/06/09 08:19:37;;;;;;;4.53;2.80;;;;;20.70;95960.00;;;;8356140;28;20316;-79
2022/06/09 08:23:40;;;;;;;3.85;2.90;;;;;20.90;95957.00;;;;8367216;28;20204;-75
2022/06/09 08:27:46;;;;;;;5.78;3.03;;;;;20.90;95958.00;;;;8355410;28;20291;-73
2022/06/09 08:31:49;;;;;;;9.35;3.53;;;;;21.00;95970.00;;;;8337981;28;20237;-71
2022/06/09 08:35:54;;;;;;;5.70;3.33;;;;;21.00;95964.00;;;;8346243;28;20228;-72
2022/06/09 08:40:00;;;;;;;4.80;3.45;;;;;21.00;95964.00;;;;8347151;28;20215;-72
2022/06/09 08:44:15;;;;;;;11.65;3.50;;;;;20.40;95977.00;;;;8347502;28;20292;-73
2022/06/09 08:48:21;;;;;;;3.50;3.17;;;;;20.10;95980.00;;;;8350407;28;20208;-75
2022/06/09 08:52:47;;;;;;;6.68;3.38;;;;;19.60;95978.00;;;;8336329;28;20238;-73
2022/06/09 08:56:51;;;;;;;6.22;3.50;;;;;19.30;95989.00;;;;8345087;28;20196;-78
2022/06/09 09:01:04;;;;;;;5.35;2.67;;;;;19.20;95994.00;;;;8343925;28;20193;-80
2022/06/09 09:05:14;;;;;;;3.38;2.22;;;;;19.30;95997.00;;;;8347664;28;20229;-72
2022/06/09 09:09:22;;;;;;;3.65;1.85;;;;;19.40;96001.00;;;;8344875;28;20234;-71
2022/06/09 09:13:40;;;;;;;8.88;2.60;;;;;19.90;96001.00;;;;8348492;28;20207;-70
2022/06/09 09:17:51;;;;;;;3.25;2.00;;;;;20.40;95998.00;;;;8349436;28;20204;-72
2022/06/09 09:22:09;;;;;;;4.13;2.28;;;;;21.00;95999.00;;;;8342367;28;20747;-71
2022/06/09 09:26:19;;;;;;;12.98;3.03;;;;;21.20;95995.00;;;;8343740;28;20232;-71
2022/06/09 09:30:26;;;;;;;9.30;2.55;;;;;21.20;96004.00;;;;8340616;28;20238;-72
2022/06/09 09:34:35;;;;;;;3.70;2.55;;;;;21.50;96003.00;;;;8339730;28;20279;-70
2022/06/09 09:38:46;;;;;;;8.75;2.65;;;;;21.60;96009.00;;;;8339555;28;20262;-71
2022/06/09 09:42:53;;;;;;;6.18;2.30;;;;;21.80;96009.00;;;;8347502;28;20288;-74
2022/06/09 09:46:59;;;;;;;5.90;2.40;;;;;22.30;96013.00;;;;8347414;28;20228;-71
2022/06/09 09:51:10;;;;;;;3.90;2.17;;;;;22.90;96005.00;;;;8345519;28;20223;-72
2022/06/09 09:55:31;;;;;;;7.50;2.22;;;;;23.20;96011.00;;;;8341592;28;20634;-69
2022/06/09 09:59:45;;;;;;;8.48;2.47;;;;;22.70;96011.00;;;;8330908;28;20393;-76
2022/06/09 10:08:41;;;;;;;5.00;1.88;;;;;22.20;96025.00;;;;8363987;28;20540;-73
2022/06/09 10:13:02;;;;;;;6.03;1.73;;;;;21.90;96036.00;;;;8359581;28;20286;-71
2022/06/09 10:17:28;;;;;;;5.90;2.30;;;;;21.10;96035.00;;;;8368102;28;20316;-74
2022/06/09 10:21:52;;;;;;;5.15;2.30;;;;;20.30;96039.00;;;;8363356;28;20219;-72
2022/06/09 10:26:19;;;;;;;2.65;2.17;;;;;19.70;96040.00;;;;8363878;28;20269;-73
2022/06/09 10:30:29;;;;;;;7.00;2.70;;;;;19.80;96043.00;;;;8362702;28;20252;-71
2022/06/09 10:34:49;;;;;;;2.40;1.88;;;;;20.20;96041.00;;;;8367059;28;20247;-70
2022/06/09 10:39:02;;;;;;;7.05;2.22;;;;;20.90;96047.00;;;;8357783;28;20205;-72
2022/06/09 10:43:17;;;;;;;2.03;1.83;;;;;22.10;96048.00;;;;8366111;28;20634;-72
2022/06/09 10:56:26;;;;;;;5.55;1.65;;;;;23.90;96051.00;;;;8366962;28;20295;-71
2022/06/09 11:00:33;;;;;;;13.50;1.67;;;;;23.40;96050.00;;;;8363947;28;20861;-72
2022/06/09 11:04:37;;;;;;;3.65;1.80;;;;;23.10;96048.00;;;;8362455;28;20232;-72
2022/06/09 11:08:50;;;;;;;3.85;1.92;;;;;22.70;96057.00;;;;8363495;28;20211;-72
2022/06/09 11:13:14;;;;;;;2.28;1.50;;;;;22.40;96060.00;;;;8362428;28;20325;-70
2022/06/09 11:17:34;;;;;;;2.15;1.20;;;;;22.90;96052.00;;;;8360917;28;20196;-71
2022/06/09 11:21:45;;;;;;;2.92;1.20;;;;;23.40;96058.00;;;;8365328;28;20286;-74
2022/06/09 11:26:00;;;;;;;1.20;1.10;;;;;23.70;96062.00;;;;8366069;28;20633;-70
2022/06/09 11:30:16;;;;;;;1.17;1.13;;;;;23.90;96067.00;;;;8362175;28;20276;-71
2022/06/09 11:34:35;;;;;;;2.13;1.10;;;;;24.30;96066.00;;;;8371746;28;20227;-70
2022/06/09 11:38:49;;;;;;;2.58;1.10;;;;;24.10;96074.00;;;;8367185;28;20205;-70
2022/06/09 11:43:11;;;;;;;1.27;1.17;;;;;23.40;96082.00;;;;8370195;28;20285;-71
2022/06/09 11:47:26;;;;;;;3.38;1.27;;;;;22.90;96078.00;;;;8361390;28;20287;-72
2022/06/09 11:51:32;;;;;;;1.40;1.33;;;;;22.70;96074.00;;;;8362018;28;20227;-70
2022/06/09 12:00:00;;;;;;;3.83;1.40;;;;;22.10;96075.00;;;;8357055;28;20216;-71
2022/06/09 12:04:13;;;;;;;3.25;1.90;;;;;22.10;96075.00;;;;8362919;28;20263;-70
2022/06/09 12:08:29;;;;;;;2.83;1.67;;;;;22.00;96085.00;;;;8369383;28;20789;-70
2022/06/09 12:12:36;;;;;;;2.78;2.20;;;;;22.10;96089.00;;;;8362371;28;20685;-74
2022/06/09 12:16:54;;;;;;;3.85;1.85;;;;;22.30;96088.00;;;;8358668;28;20207;-71
2022/06/09 12:21:04;;;;;;;4.30;1.60;;;;;22.40;96089.00;;;;8364369;28;20224;-71
2022/06/09 12:25:34;;;;;;;3.08;1.60;;;;;22.30;96099.00;;;;8359623;28;20194;-71
2022/06/09 12:29:43;;;;;;;4.35;2.33;;;;;22.20;96104.00;;;;8361461;28;20201;-73
2022/06/09 12:33:53;;;;;;;2.55;1.70;;;;;22.30;96113.00;;;;8363405;28;20325;-70
2022/06/09 12:38:04;;;;;;;4.82;1.83;;;;;22.50;96114.00;;;;8363603;28;20738;-70
2022/06/09 12:42:22;;;;;;;3.88;2.05;;;;;22.70;96113.00;;;;8364399;28;20569;-70
2022/06/09 12:46:27;;;;;;;2.38;1.65;;;;;22.50;96122.00;;;;8359948;28;20821;-71
2022/06/09 12:50:40;;;;;;;1.95;1.60;;;;;22.40;96115.00;;;;8365136;28;20729;-72
2022/06/09 12:54:44;;;;;;;2.70;1.80;;;;;22.40;96123.00;;;;8364544;28;20243;-72
2022/06/09 12:58:50;;;;;;;3.72;1.80;;;;;22.30;96125.00;;;;8360123;28;20201;-70
2022/06/09 13:02:55;;;;;;;1.70;1.45;;;;;22.20;96128.00;;;;8357270;28;20816;-69
2022/06/09 13:07:00;;;;;;;4.78;1.50;;;;;22.10;96128.00;;;;8363060;28;20192;-69
2022/06/09 13:11:06;;;;;;;4.25;1.65;;;;;22.30;96135.00;;;;8367020;28;20554;-70
2022/06/09 13:15:21;;;;;;;1.90;1.65;;;;;22.80;96139.00;;;;8364992;28;20196;-69
2022/06/09 13:19:32;;;;;;;5.80;1.55;;;;;23.40;96148.00;;;;8361470;28;20251;-70
2022/06/09 13:23:37;;;;;;;5.15;1.63;;;;;23.60;96149.00;;;;8367383;28;20240;-73
2022/06/09 13:27:45;;;;;;;3.03;1.42;;;;;23.30;96158.00;;;;8359801;28;20202;-70
2022/06/09 13:31:52;;;;;;;1.52;1.40;;;;;23.20;96166.00;;;;8353199;28;20224;-71
2022/06/09 13:36:09;;;;;;;2.40;1.63;;;;;23.20;96163.00;;;;8347996;28;20307;-70
2022/06/09 13:40:18;;;;;;;2.92;1.70;;;;;23.40;96156.00;;;;8347073;28;20643;-70
2022/06/09 13:44:26;;;;;;;2.65;1.55;;;;;23.50;96166.00;;;;8355266;28;20314;-70
2022/06/09 13:48:43;;;;;;;2.85;1.60;;;;;23.70;96163.00;;;;8357521;28;20295;-71
2022/06/09 13:52:48;;;;;;;2.10;1.70;;;;;23.50;96171.00;;;;8357368;28;20316;-70
2022/06/09 13:56:52;;;;;;;3.55;1.70;;;;;23.60;96175.00;;;;8352267;28;20292;-73
2022/06/09 14:00:58;;;;;;;2.83;1.75;;;;;23.90;96174.00;;;;8349966;28;20836;-70
2022/06/09 14:05:03;;;;;;;4.50;1.63;;;;;24.10;96182.00;;;;8354317;28;20233;-70
2022/06/09 14:09:07;;;;;;;2.63;1.52;;;;;24.10;96192.00;;;;8352371;28;20203;-70
2022/06/09 14:13:10;;;;;;;2.35;1.50;;;;;24.10;96195.00;;;;8358821;28;20224;-69
2022/06/09 14:17:20;;;;;;;2.67;1.48;;;;;24.10;96196.00;;;;8353967;28;20790;-70
2022/06/09 14:21:24;;;;;;;1.55;1.40;;;;;24.00;96195.00;;;;8357961;28;20661;-69
2022/06/09 14:25:31;;;;;;;6.20;1.40;;;;;23.90;96197.00;;;;8354333;28;20283;-70
2022/06/09 14:29:34;;;;;;;1.95;1.70;;;;;23.80;96200.00;;;;8352987;28;20279;-69
2022/06/09 14:33:37;;;;;;;2.20;1.48;;;;;23.80;96202.00;;;;8356458;28;20877;-72
2022/06/09 14:37:42;;;;;;;4.65;1.52;;;;;24.10;96209.00;;;;8355596;28;20217;-71
2022/06/09 14:41:46;;;;;;;3.22;1.40;;;;;24.40;96212.00;;;;8351182;28;20193;-69
2022/06/09 14:45:53;;;;;;;3.35;1.50;;;;;24.30;96211.00;;;;8357647;28;20276;-71
2022/06/09 14:49:56;;;;;;;1.75;1.33;;;;;24.50;96219.00;;;;8355794;28;20204;-70
2022/06/09 14:54:01;;;;;;;1.50;1.30;;;;;24.60;96222.00;;;;8358190;28;20221;-70
2022/06/09 14:58:05;;;;;;;3.00;1.60;;;;;24.70;96219.00;;;;8357139;28;20228;-71
2022/06/09 15:02:15;;;;;;;3.08;1.40;;;;;24.70;96229.00;;;;8357374;28;20226;-70
2022/06/09 15:06:21;;;;;;;2.58;1.45;;;;;24.60;96229.00;;;;8358644;28;20303;-67
2022/06/09 15:10:29;;;;;;;1.98;1.60;;;;;24.70;96227.00;;;;8347752;28;20227;-72
2022/06/09 15:14:33;;;;;;;5.32;1.50;;;;;24.70;96246.00;;;;8354259;28;20228;-66
2022/06/09 15:18:43;;;;;;;2.05;1.60;;;;;24.70;96241.00;;;;8355592;28;20254;-68
2022/06/09 15:22:46;;;;;;;7.63;1.92;;;;;24.60;96250.00;;;;8350879;28;20231;-66
2022/06/09 15:26:52;;;;;;;4.72;2.00;;;;;24.30;96249.00;;;;8348947;28;20236;-69
2022/06/09 15:30:57;;;;;;;4.13;1.67;;;;;23.90;96248.00;;;;8349006;28;20201;-69
2022/06/09 15:35:01;;;;;;;1.85;1.40;;;;;23.60;96248.00;;;;8347594;28;20197;-70
2022/06/09 15:39:05;;;;;;;3.60;1.50;;;;;23.40;96255.00;;;;8345841;28;20233;-69
2022/06/09 15:43:10;;;;;;;2.33;2.10;;;;;23.40;96260.00;;;;8353217;28;20695;-69
2022/06/09 15:47:13;;;;;;;7.15;2.58;;;;;23.00;96261.00;;;;8350908;28;20197;-69
2022/06/09 15:51:19;;;;;;;6.68;3.47;;;;;22.80;96261.00;;;;8344341;28;20689;-69
2022/06/09 15:55:22;;;;;;;4.38;2.95;;;;;22.60;96273.00;;;;8350283;28;20701;-66
2022/06/09 15:59:27;;;;;;;5.07;2.72;;;;;22.60;96264.00;;;;8345246;28;20835;-70
2022/06/09 16:03:31;;;;;;;4.10;2.50;;;;;22.80;96267.00;;;;8347955;28;20229;-69
2022/06/09 16:07:36;;;;;;;5.15;2.40;;;;;22.90;96263.00;;;;8345188;28;20205;-71
2022/06/09 16:11:42;;;;;;;3.42;2.40;;;;;22.70;96270.00;;;;8351746;28;20216;-71
2022/06/09 16:15:48;;;;;;;3.75;1.83;;;;;22.70;96279.00;;;;8342895;28;20208;-71
2022/06/09 16:19:52;;;;;;;4.15;1.80;;;;;22.60;96278.00;;;;8343219;28;20698;-71
2022/06/09 16:23:55;;;;;;;3.58;1.90;;;;;22.60;96282.00;;;;8346521;28;20672;-71
2022/06/09 16:28:02;;;;;;;7.40;1.70;;;;;23.10;96290.00;;;;8349852;28;20228;-70
2022/06/09 16:32:08;;;;;;;5.28;1.70;;;;;23.20;96286.00;;;;8348886;28;20228;-68
2022/06/09 16:36:15;;;;;;;3.70;2.10;;;;;23.30;96299.00;;;;8348235;28;20200;-69
2022/06/09 16:40:22;;;;;;;4.75;1.80;;;;;23.20;96302.00;;;;8347570;28;20204;-72
2022/06/09 16:44:25;;;;;;;3.88;1.65;;;;;23.10;96315.00;;;;8351260;28;20231;-70
2022/06/09 16:48:31;;;;;;;5.88;1.80;;;;;22.90;96308.00;;;;8344631;28;20586;-69
2022/06/09 16:52:40;;;;;;;4.90;1.60;;;;;22.80;96318.00;;;;8350958;28;20234;-70
2022/06/09 16:56:43;;;;;;;3.83;1.73;;;;;22.40;96327.00;;;;8351549;28;20239;-69
2022/06/09 17:00:46;;;;;;;5.63;1.83;;;;;22.20;96329.00;;;;8350403;28;20236;-69
2022/06/09 17:04:51;;;;;;;1.92;1.70;;;;;22.30;96331.00;;;;8351988;28;20621;-70
2022/06/09 17:08:54;;;;;;;3.17;1.67;;;;;22.90;96345.00;;;;8349260;28;20651;-70
2022/06/09 17:12:59;;;;;;;2.25;1.70;;;;;23.60;96347.00;;;;8344826;28;20966;-71
2022/06/09 17:17:02;;;;;;;2.83;1.35;;;;;23.70;96356.00;;;;8350072;28;20312;-70
2022/06/09 17:21:07;;;;;;;4.88;1.50;;;;;23.60;96352.00;;;;8352351;28;20203;-70
2022/06/09 17:25:11;;;;;;;2.95;1.40;;;;;23.00;96363.00;;;;8350353;28;20209;-69
2022/06/09 17:29:15;;;;;;;3.60;1.58;;;;;22.80;96364.00;;;;8352353;28;20203;-73
2022/06/09 17:33:19;;;;;;;2.40;1.50;;;;;22.70;96365.00;;;;8347546;28;20229;-69
2022/06/09 17:37:24;;;;;;;4.47;1.58;;;;;22.90;96373.00;;;;8352203;28;20192;-69
2022/06/09 17:41:27;;;;;;;6.43;1.88;;;;;22.90;96382.00;;;;8353541;28;20204;-70
2022/06/09 17:45:30;;;;;;;1.50;1.48;;;;;22.70;96380.00;;;;8347960;28;20208;-70
2022/06/09 17:49:34;;;;;;;2.72;1.70;;;;;22.30;96397.00;;;;8347153;28;20561;-67
2022/06/09 17:53:39;;;;;;;5.40;1.90;;;;;21.90;96385.00;;;;8354207;28;20768;-70
2022/06/09 17:57:43;;;;;;;2.08;1.48;;;;;21.60;96392.00;;;;8344661;28;20260;-67
2022/06/09 18:01:46;;;;;;;2.72;1.50;;;;;21.40;96394.00;;;;8345819;28;20939;-69
2022/06/09 18:05:52;;;;;;;6.70;1.95;;;;;21.40;96401.00;;;;8347749;28;20276;-69
2022/06/09 18:09:58;;;;;;;3.70;1.58;;;;;21.40;96405.00;;;;8340092;28;20308;-69
2022/06/09 18:14:01;;;;;;;2.55;1.65;;;;;21.40;96414.00;;;;8348058;28;20339;-69
2022/06/09 18:18:06;;;;;;;4.20;1.70;;;;;21.10;96419.00;;;;8343411;28;20203;-69
2022/06/09 18:22:10;;;;;;;6.18;2.13;;;;;20.90;96433.00;;;;8345608;28;20208;-70
2022/06/09 18:26:19;;;;;;;3.70;1.70;;;;;20.70;96442.00;;;;8335984;28;20205;-68
2022/06/09 18:30:24;;;;;;;4.13;1.70;;;;;20.50;96436.00;;;;8347820;28;20253;-69
2022/06/09 18:34:27;;;;;;;8.52;1.80;;;;;20.40;96447.00;;;;8341062;28;20231;-70
2022/06/09 18:38:31;;;;;;;3.30;2.03;;;;;20.20;96448.00;;;;8344211;28;20213;-70
2022/06/09 18:42:40;;;;;;;6.07;2.10;;;;;20.00;96451.00;;;;8358969;28;20835;-69
2022/06/09 18:46:44;;;;;;;6.78;2.03;;;;;19.80;96454.00;;;;8359702;28;20201;-69
2022/06/09 18:50:47;;;;;;;4.97;1.70;;;;;19.70;96461.00;;;;8347764;28;20646;-68
2022/06/09 18:54:57;;;;;;;2.38;1.60;;;;;19.50;96469.00;;;;8353424;28;20947;-68
2022/06/09 18:59:02;;;;;;;2.50;1.73;;;;;19.40;96479.00;;;;8351497;28;20291;-68
2022/06/09 19:03:06;;;;;;;3.60;1.70;;;;;19.30;96478.00;;;;8348842;28;20682;-68
2022/06/09 19:07:10;;;;;;;2.83;1.60;;;;;19.10;96485.00;;;;8353552;28;20239;-69
2022/06/09 19:11:15;;;;;;;9.23;1.90;;;;;18.90;96493.00;;;;8356155;28;20193;-69
2022/06/09 19:15:20;;;;;;;2.28;1.50;;;;;18.80;96501.00;;;;8362594;28;20319;-68
2022/06/09 19:19:23;;;;;;;3.47;1.70;;;;;18.60;96509.00;;;;8352621;28;20292;-67
2022/06/09 19:23:27;;;;;;;5.15;1.52;;;;;18.50;96512.00;;;;8352428;28;20272;-69
2022/06/09 19:27:30;;;;;;;4.60;1.60;;;;;18.40;96510.00;;;;8353691;28;20915;-71
2022/06/09 19:31:35;;;;;;;4.68;1.98;;;;;18.30;96517.00;;;;8346592;28;20201;-68
2022/06/09 19:35:40;;;;;;;5.10;1.80;;;;;18.20;96528.00;;;;8354034;28;20263;-69
2022/06/09 19:39:43;;;;;;;2.78;1.80;;;;;18.20;96533.00;;;;8341699;28;20227;-70
2022/06/09 19:43:46;;;;;;;5.95;1.70;;;;;18.10;96529.00;;;;8349742;28;20193;-71
2022/06/09 19:47:53;;;;;;;2.40;1.60;;;;;17.90;96532.00;;;;8351791;28;21899;-69
2022/06/09 19:51:57;;;;;;;5.78;1.80;;;;;17.80;96543.00;;;;8348944;28;20576;-71
2022/06/09 19:56:00;;;;;;;2.55;1.83;;;;;17.60;96544.00;;;;8348313;28;20224;-69
2022/06/09 20:00:05;;;;;;;2.22;1.58;;;;;17.50;96559.00;;;;8357069;28;20725;-70
2022/06/09 20:04:09;;;;;;;2.75;1.88;;;;;17.30;96561.00;;;;8355915;28;20649;-70
2022/06/09 20:08:17;;;;;;;8.52;1.83;;;;;17.20;96560.00;;;;8352562;28;20207;-69
2022/06/09 20:12:21;;;;;;;2.78;1.77;;;;;17.00;96566.00;;;;8362781;28;20200;-69
2022/06/09 20:16:26;;;;;;;4.50;1.80;;;;;16.90;96569.00;;;;8364563;28;20230;-70
2022/06/09 20:20:34;;;;;;;2.08;1.92;;;;;16.90;96580.00;;;;8356337;28;20659;-68
2022/06/09 20:24:38;;;;;;;2.88;1.90;;;;;16.80;96580.00;;;;8346055;28;20197;-69
2022/06/09 20:28:42;;;;;;;2.70;2.13;;;;;16.80;96583.00;;;;8344688;28;20201;-70
2022/06/09 20:32:45;;;;;;;4.97;1.90;;;;;16.70;96587.00;;;;8341318;28;20248;-69
2022/06/09 20:36:50;;;;;;;3.55;2.10;;;;;16.70;96600.00;;;;8348417;28;20207;-71
2022/06/09 20:40:56;;;;;;;7.18;1.90;;;;;16.70;96594.00;;;;8355364;28;20200;-70
2022/06/09 20:44:59;;;;;;;4.80;2.42;;;;;16.60;96607.00;;;;8351853;28;20287;-68
2022/06/09 20:49:07;;;;;;;7.90;2.47;;;;;16.60;96601.00;;;;8351983;28;20288;-70
2022/06/09 20:53:14;;;;;;;2.58;1.90;;;;;16.60;96606.00;;;;8353064;28;20303;-70
2022/06/09 20:57:18;;;;;;;1.90;1.77;;;;;16.60;96604.00;;;;8353822;28;20224;-68
2022/06/09 21:01:21;;;;;;;4.60;2.15;;;;;16.50;96605.00;;;;8344167;28;20570;-70
2022/06/09 21:05:24;;;;;;;3.63;2.22;;;;;16.50;96611.00;;;;8352049;28;20258;-68
2022/06/09 21:09:29;;;;;;;6.13;2.03;;;;;16.50;96619.00;;;;8350042;28;20619;-69